Time;durP1;ratioP1;P1;durP2;ratioP2;P2;SDS_P1;SDS_P2;PMS_P1;PMS_P2;Temp;Humidity;BMP_temperature;BMP_pressure;BME280_temperature;BME280_humidity;BME280_pressure;Samples;Min_cycle;Max_cycle;Signal;HPM_P1;HPM_P2
2022/12/22 03:27:53;;;;;;;;;;;9.00;99.90;;;;;;4970197;28;19930;-63
2022/12/22 03:30:20;;;;;;;;;;;9.00;99.90;;;;;;4986218;28;19932;-63
2022/12/22 03:32:48;;;;;;;;;;;9.00;99.90;;;;;;4970366;28;19927;-63
2022/12/22 03:35:17;;;;;;;;;;;9.00;99.90;;;;;;4969825;28;20297;-62
2022/12/22 03:37:45;;;;;;;;;;;9.00;99.90;;;;;;4968158;28;19926;-62
2022/12/22 03:40:12;;;;;;;;;;;9.10;99.90;;;;;;4969456;28;20345;-63
2022/12/22 03:48:11;;;;;;;;;;;9.00;99.90;;;;;;4970083;28;20024;-62
2022/12/22 03:50:40;;;;;;;;;;;9.10;99.90;;;;;;4973342;28;19926;-62
2022/12/22 03:53:07;;;;;;;;;;;9.00;99.90;;;;;;4968704;28;20455;-62
2022/12/22 03:55:35;;;;;;;;;;;9.00;99.90;;;;;;4973244;28;19926;-62
2022/12/22 03:58:03;;;;;;;;;;;9.00;99.90;;;;;;4971816;28;19934;-62
2022/12/22 04:00:30;;;;;;;;;;;9.00;99.90;;;;;;4976960;28;19934;-62
2022/12/22 04:02:58;;;;;;;;;;;9.00;99.90;;;;;;5011029;28;20449;-62
2022/12/22 04:05:26;;;;;;;;;;;9.10;99.90;;;;;;4974375;28;19971;-62
2022/12/22 04:07:55;;;;;;;;;;;9.10;99.90;;;;;;4971927;28;20028;-62
2022/12/22 04:13:08;;;;;;;;;;;9.10;99.90;;;;;;4970573;28;20332;-62
2022/12/22 04:15:36;;;;;;;;;;;9.10;99.90;;;;;;4969248;28;19926;-62
2022/12/22 04:18:03;;;;;;;;;;;9.10;99.90;;;;;;4970726;28;19935;-62
2022/12/22 04:20:31;;;;;;;;;;;9.10;99.90;;;;;;4970878;28;19949;-63
2022/12/22 04:23:00;;;;;;;;;;;9.10;99.90;;;;;;4966244;28;19926;-62
2022/12/22 04:25:28;;;;;;;;;;;9.20;99.90;;;;;;4970639;28;19977;-62
2022/12/22 04:27:56;;;;;;;;;;;9.20;99.90;;;;;;4975898;28;20373;-63
2022/12/22 04:30:23;;;;;;;;;;;9.20;99.90;;;;;;4971772;28;19930;-63
2022/12/22 04:32:51;;;;;;;;;;;9.20;99.90;;;;;;4970803;28;20017;-63
2022/12/22 04:35:19;;;;;;;;;;;9.20;99.90;;;;;;4971542;28;19948;-63
2022/12/22 04:37:46;;;;;;;;;;;9.20;99.90;;;;;;4967797;28;20413;-63
2022/12/22 04:40:16;;;;;;;;;;;9.20;99.90;;;;;;4972390;28;19926;-63
2022/12/22 04:42:43;;;;;;;;;;;9.20;99.90;;;;;;4973031;28;19934;-63
2022/12/22 04:45:11;;;;;;;;;;;9.20;99.90;;;;;;4972282;28;20021;-63
2022/12/22 04:47:39;;;;;;;;;;;9.10;99.90;;;;;;4970353;28;19926;-62
2022/12/22 04:50:07;;;;;;;;;;;9.20;99.90;;;;;;4972527;28;19926;-63
2022/12/22 04:52:34;;;;;;;;;;;9.20;99.90;;;;;;4972518;28;19926;-63
2022/12/22 04:55:02;;;;;;;;;;;9.30;99.90;;;;;;4989482;28;20388;-63
2022/12/22 04:57:32;;;;;;;;;;;9.40;99.90;;;;;;4973484;28;20012;-62
2022/12/22 05:00:07;;;;;;;;;;;9.30;99.90;;;;;;4980388;28;19934;-62
2022/12/22 05:02:35;;;;;;;;;;;9.40;99.90;;;;;;4973116;28;19938;-63
2022/12/22 05:05:03;;;;;;;;;;;9.40;99.90;;;;;;4974720;28;19930;-62
2022/12/22 05:07:30;;;;;;;;;;;9.40;99.90;;;;;;4974952;28;19926;-62
2022/12/22 05:09:58;;;;;;;;;;;9.40;99.90;;;;;;4974186;28;19934;-62
2022/12/22 05:15:12;;;;;;;;;;;9.40;99.90;;;;;;4969028;28;20028;-62
2022/12/22 05:17:40;;;;;;;;;;;9.30;99.90;;;;;;4974029;28;19983;-63
2022/12/22 05:20:08;;;;;;;;;;;9.40;99.90;;;;;;4976925;28;19927;-63
2022/12/22 05:22:36;;;;;;;;;;;9.30;99.90;;;;;;4973449;28;20008;-62
2022/12/22 05:25:04;;;;;;;;;;;9.30;99.90;;;;;;4973118;28;19941;-62
2022/12/22 05:27:32;;;;;;;;;;;9.40;99.90;;;;;;4973772;28;20499;-62
2022/12/22 05:29:59;;;;;;;;;;;9.30;99.90;;;;;;4974657;28;19935;-63
2022/12/22 05:32:28;;;;;;;;;;;9.30;99.90;;;;;;4987606;28;19930;-63
2022/12/22 05:34:56;;;;;;;;;;;9.30;99.90;;;;;;4970919;28;19926;-64
2022/12/22 05:37:24;;;;;;;;;;;9.30;99.90;;;;;;4973523;28;19933;-63
2022/12/22 05:39:51;;;;;;;;;;;9.30;99.90;;;;;;4970413;28;20284;-63
2022/12/22 05:42:34;;;;;;;;;;;9.20;99.90;;;;;;4973414;28;19926;-64
2022/12/22 05:45:03;;;;;;;;;;;9.30;99.90;;;;;;4971371;28;19932;-63
2022/12/22 05:47:32;;;;;;;;;;;9.30;99.90;;;;;;4973562;28;19933;-63
2022/12/22 05:50:00;;;;;;;;;;;9.20;99.90;;;;;;4972608;28;19926;-63
2022/12/22 05:52:28;;;;;;;;;;;9.20;99.90;;;;;;4975282;28;20395;-63
2022/12/22 05:54:56;;;;;;;;;;;9.20;99.90;;;;;;4973612;28;19933;-63
2022/12/22 05:57:24;;;;;;;;;;;9.20;99.90;;;;;;4974183;28;19980;-63
2022/12/22 05:59:51;;;;;;;;;;;9.20;99.90;;;;;;4972435;28;19930;-64
2022/12/22 06:02:19;;;;;;;;;;;9.20;99.90;;;;;;4973468;28;19926;-63
2022/12/22 06:04:48;;;;;;;;;;;9.30;99.90;;;;;;4971171;28;20349;-64
2022/12/22 06:07:16;;;;;;;;;;;9.30;99.90;;;;;;4972927;28;19996;-64
2022/12/22 06:09:44;;;;;;;;;;;9.30;99.90;;;;;;4975107;28;19932;-63
2022/12/22 06:12:12;;;;;;;;;;;9.40;99.90;;;;;;4973303;28;19955;-63
2022/12/22 06:14:39;;;;;;;;;;;9.40;99.90;;;;;;4965612;28;19933;-63
2022/12/22 06:17:07;;;;;;;;;;;9.50;99.90;;;;;;4970247;28;19994;-63
2022/12/22 06:19:35;;;;;;;;;;;9.50;99.90;;;;;;4970601;28;19938;-62
2022/12/22 06:22:04;;;;;;;;;;;9.50;99.90;;;;;;4971413;28;19937;-63
2022/12/22 06:24:31;;;;;;;;;;;9.50;99.90;;;;;;4970133;28;19941;-63
2022/12/22 06:26:59;;;;;;;;;;;9.50;99.90;;;;;;4975721;28;19926;-63
2022/12/22 06:29:27;;;;;;;;;;;9.50;99.90;;;;;;4971625;28;19926;-64
2022/12/22 06:31:54;;;;;;;;;;;9.50;99.90;;;;;;4991103;23;19930;-65
2022/12/22 06:34:22;;;;;;;;;;;9.50;99.90;;;;;;4967522;28;19926;-64
2022/12/22 06:36:50;;;;;;;;;;;9.50;99.90;;;;;;4966834;28;19931;-64
2022/12/22 06:39:19;;;;;;;;;;;9.50;99.90;;;;;;4969014;28;19935;-64
2022/12/22 06:44:32;;;;;;;;;;;9.50;99.90;;;;;;4963927;28;20515;-64
2022/12/22 06:46:59;;;;;;;;;;;9.50;99.90;;;;;;4964227;28;20782;-64
2022/12/22 06:49:27;;;;;;;;;;;9.50;99.90;;;;;;4969729;28;19938;-65
2022/12/22 06:51:55;;;;;;;;;;;9.50;99.90;;;;;;4965230;28;19931;-65
2022/12/22 06:54:24;;;;;;;;;;;9.60;99.90;;;;;;4960990;28;19926;-65
2022/12/22 06:56:53;;;;;;;;;;;9.60;99.90;;;;;;4957696;28;20392;-65
2022/12/22 06:59:20;;;;;;;;;;;9.50;99.90;;;;;;4964346;28;20016;-65
2022/12/22 07:01:48;;;;;;;;;;;9.60;99.90;;;;;;4967882;28;20375;-64
2022/12/22 07:04:19;;;;;;;;;;;9.60;99.90;;;;;;4956302;28;20415;-65
2022/12/22 07:06:47;;;;;;;;;;;9.60;99.90;;;;;;4951602;29;20372;-65
2022/12/22 07:09:14;;;;;;;;;;;9.70;99.90;;;;;;4964939;28;19926;-63
2022/12/22 07:11:43;;;;;;;;;;;9.80;99.90;;;;;;4961606;28;19944;-62
2022/12/22 07:14:11;;;;;;;;;;;9.90;99.90;;;;;;4969162;28;19936;-62
2022/12/22 07:16:39;;;;;;;;;;;10.10;99.90;;;;;;4966980;28;20040;-62
2022/12/22 07:19:07;;;;;;;;;;;10.20;99.90;;;;;;4968415;28;19980;-63
2022/12/22 07:21:34;;;;;;;;;;;10.40;99.90;;;;;;4959599;28;19933;-63
2022/12/22 07:24:02;;;;;;;;;;;10.40;99.90;;;;;;4966322;28;19970;-63
2022/12/22 07:26:30;;;;;;;;;;;10.40;99.90;;;;;;4965097;28;19966;-63
2022/12/22 07:28:59;;;;;;;;;;;10.50;99.90;;;;;;4971263;28;19941;-63
2022/12/22 07:31:27;;;;;;;;;;;10.50;99.90;;;;;;4966996;28;19926;-63
2022/12/22 07:33:54;;;;;;;;;;;10.50;99.90;;;;;;4969222;28;19969;-63
2022/12/22 07:36:22;;;;;;;;;;;10.50;99.90;;;;;;4967137;28;19926;-63
2022/12/22 07:38:51;;;;;;;;;;;10.60;99.90;;;;;;4965134;28;19926;-63
2022/12/22 07:44:06;;;;;;;;;;;10.60;99.90;;;;;;4970038;28;20036;-63
2022/12/22 07:46:35;;;;;;;;;;;10.50;99.90;;;;;;4970560;28;20013;-63
2022/12/22 07:51:49;;;;;;;;;;;10.40;99.90;;;;;;4969445;28;19926;-63
2022/12/22 07:54:17;;;;;;;;;;;10.40;99.90;;;;;;4970412;28;19937;-63
2022/12/22 07:56:46;;;;;;;;;;;10.40;99.90;;;;;;4970130;28;19926;-63
2022/12/22 07:59:15;;;;;;;;;;;10.30;99.90;;;;;;4969402;28;19934;-65
2022/12/22 08:01:44;;;;;;;;;;;10.30;99.90;;;;;;4969650;28;20012;-65
2022/12/22 08:04:12;;;;;;;;;;;10.30;99.90;;;;;;4968919;28;20037;-63
2022/12/22 08:06:40;;;;;;;;;;;10.30;99.90;;;;;;4962047;28;19934;-63
2022/12/22 08:09:09;;;;;;;;;;;10.20;99.90;;;;;;4970127;28;19969;-63
2022/12/22 08:11:36;;;;;;;;;;;10.20;99.90;;;;;;4968985;28;19926;-63
2022/12/22 08:14:04;;;;;;;;;;;10.20;99.90;;;;;;4952371;28;20041;-63
2022/12/22 08:16:33;;;;;;;;;;;10.20;99.90;;;;;;4950677;29;19988;-64
2022/12/22 08:19:01;;;;;;;;;;;10.20;99.90;;;;;;4950439;29;19976;-63
2022/12/22 08:21:29;;;;;;;;;;;10.20;99.90;;;;;;4949844;29;19989;-63
2022/12/22 08:23:57;;;;;;;;;;;10.20;99.90;;;;;;4950562;29;19927;-63
2022/12/22 08:26:27;;;;;;;;;;;10.30;99.90;;;;;;4950471;29;20013;-63
2022/12/22 08:28:56;;;;;;;;;;;10.30;99.90;;;;;;4950744;28;19931;-63
2022/12/22 08:31:25;;;;;;;;;;;10.40;99.90;;;;;;4949445;28;20246;-63
2022/12/22 08:33:55;;;;;;;;;;;10.40;99.90;;;;;;4954127;28;20359;-63
2022/12/22 08:36:23;;;;;;;;;;;10.50;99.90;;;;;;4961448;28;19933;-63
2022/12/22 08:38:51;;;;;;;;;;;10.50;99.90;;;;;;4969547;28;20012;-63
2022/12/22 08:41:48;;;;;;;;;;;10.60;99.90;;;;;;4968931;28;20405;-63
2022/12/22 08:44:08;;;;;;;;;;;10.60;99.90;;;;;;4962926;28;20009;-63
2022/12/22 08:46:35;;;;;;;;;;;10.60;99.90;;;;;;4969482;28;20021;-63
2022/12/22 08:49:04;;;;;;;;;;;10.70;99.90;;;;;;4969381;28;19973;-63
2022/12/22 08:51:32;;;;;;;;;;;10.70;99.90;;;;;;4968793;28;19973;-63
2022/12/22 08:54:00;;;;;;;;;;;10.70;99.90;;;;;;4969350;28;20013;-63
2022/12/22 08:56:33;;;;;;;;;;;10.70;99.90;;;;;;4969560;28;19969;-63
2022/12/22 08:59:03;;;;;;;;;;;10.80;99.90;;;;;;4968518;28;19931;-63
2022/12/22 09:01:31;;;;;;;;;;;10.80;99.90;;;;;;4961981;28;19931;-63
2022/12/22 09:04:00;;;;;;;;;;;10.70;99.90;;;;;;4954791;28;19934;-64
2022/12/22 09:06:29;;;;;;;;;;;10.70;99.90;;;;;;4963757;28;20022;-63
2022/12/22 09:09:08;;;;;;;;;;;10.80;99.90;;;;;;4950021;29;19972;-63
2022/12/22 09:11:35;;;;;;;;;;;10.70;99.90;;;;;;4949170;29;20262;-63
2022/12/22 09:14:04;;;;;;;;;;;10.70;99.90;;;;;;4949928;28;20017;-63
2022/12/22 09:16:32;;;;;;;;;;;10.70;99.90;;;;;;4952508;29;19930;-63
2022/12/22 09:19:00;;;;;;;;;;;10.60;99.90;;;;;;4953029;29;19930;-63
2022/12/22 09:21:30;;;;;;;;;;;10.60;99.90;;;;;;4952223;29;20025;-66
2022/12/22 09:23:58;;;;;;;;;;;10.60;99.90;;;;;;4952783;29;20013;-64
2022/12/22 09:26:28;;;;;;;;;;;10.50;99.90;;;;;;4953054;29;19933;-63
2022/12/22 09:28:56;;;;;;;;;;;10.50;99.90;;;;;;4953084;28;19926;-63
2022/12/22 09:31:25;;;;;;;;;;;10.50;99.90;;;;;;4951676;29;20295;-66
2022/12/22 09:33:53;;;;;;;;;;;10.50;99.90;;;;;;4956753;28;19930;-65
2022/12/22 09:36:22;;;;;;;;;;;10.50;99.90;;;;;;4963975;28;19926;-66
2022/12/22 09:38:51;;;;;;;;;;;10.50;99.90;;;;;;4954883;28;19927;-63
2022/12/22 09:41:21;;;;;;;;;;;10.40;99.90;;;;;;4971207;28;19933;-63
2022/12/22 09:43:49;;;;;;;;;;;10.40;99.90;;;;;;4971354;28;19935;-63
2022/12/22 09:46:19;;;;;;;;;;;10.40;99.90;;;;;;4971937;28;19961;-63
2022/12/22 09:48:47;;;;;;;;;;;10.40;99.90;;;;;;4971985;28;20020;-63
2022/12/22 09:51:16;;;;;;;;;;;10.40;99.90;;;;;;4971243;28;19930;-63
2022/12/22 09:53:54;;;;;;;;;;;10.40;99.90;;;;;;4972012;28;19948;-63
2022/12/22 09:56:23;;;;;;;;;;;10.40;99.90;;;;;;4971928;28;19926;-63
2022/12/22 09:58:50;;;;;;;;;;;10.40;99.90;;;;;;4971893;28;20017;-63
2022/12/22 10:01:38;;;;;;;;;;;10.40;99.90;;;;;;4969182;28;20185;-63
2022/12/22 10:04:12;;;;;;;;;;;10.40;99.90;;;;;;4997879;28;20194;-63
2022/12/22 10:06:43;;;;;;;;;;;10.40;99.90;;;;;;4960354;28;20374;-63
2022/12/22 10:09:15;;;;;;;;;;;10.40;99.90;;;;;;4952387;29;20380;-64
2022/12/22 10:12:04;;;;;;;;;;;10.40;99.90;;;;;;4952385;29;19938;-66
2022/12/22 10:14:34;;;;;;;;;;;10.40;99.90;;;;;;4952390;29;19933;-65
2022/12/22 10:17:15;;;;;;;;;;;10.50;99.90;;;;;;4963996;28;20017;-65
2022/12/22 10:19:43;;;;;;;;;;;10.50;99.90;;;;;;4970559;28;20025;-65
2022/12/22 10:22:20;;;;;;;;;;;10.60;99.90;;;;;;4971421;28;19930;-65
2022/12/22 10:24:49;;;;;;;;;;;10.60;99.90;;;;;;4971638;28;20383;-66
2022/12/22 10:27:17;;;;;;;;;;;10.60;99.90;;;;;;4971001;28;20013;-65
2022/12/22 10:29:45;;;;;;;;;;;10.60;99.90;;;;;;4970591;28;19926;-66
2022/12/22 10:32:13;;;;;;;;;;;10.70;99.90;;;;;;4969444;28;19956;-66
2022/12/22 10:34:57;;;;;;;;;;;10.70;99.90;;;;;;4970926;28;19934;-65
2022/12/22 10:37:30;;;;;;;;;;;10.70;99.90;;;;;;4963092;28;20030;-66
2022/12/22 10:39:59;;;;;;;;;;;10.70;99.90;;;;;;4970757;28;19926;-65
2022/12/22 10:42:27;;;;;;;;;;;10.70;99.90;;;;;;4971258;28;20371;-66
2022/12/22 10:44:54;;;;;;;;;;;10.70;99.90;;;;;;4970887;28;19930;-66
2022/12/22 10:47:24;;;;;;;;;;;10.80;99.90;;;;;;4970265;28;19926;-66
2022/12/22 10:49:55;;;;;;;;;;;10.80;99.90;;;;;;4970410;28;20459;-66
2022/12/22 10:52:23;;;;;;;;;;;10.90;99.90;;;;;;4970945;28;20391;-66
2022/12/22 10:55:12;;;;;;;;;;;10.90;99.90;;;;;;4971014;28;19976;-66
2022/12/22 10:57:41;;;;;;;;;;;11.00;99.90;;;;;;4970924;28;19926;-66
2022/12/22 11:00:21;;;;;;;;;;;11.00;99.90;;;;;;4970169;28;20024;-66
2022/12/22 11:02:50;;;;;;;;;;;11.00;99.90;;;;;;4969354;28;20316;-66
2022/12/22 11:05:18;;;;;;;;;;;11.00;99.90;;;;;;4968128;28;20021;-66
2022/12/22 11:07:47;;;;;;;;;;;11.00;99.90;;;;;;4963842;28;19926;-66
2022/12/22 11:10:17;;;;;;;;;;;11.00;99.90;;;;;;4969918;28;20037;-65
2022/12/22 11:12:55;;;;;;;;;;;11.00;99.90;;;;;;4970608;28;19969;-66
2022/12/22 11:15:27;;;;;;;;;;;11.10;99.90;;;;;;4970634;28;20051;-66
2022/12/22 11:17:58;;;;;;;;;;;11.10;99.90;;;;;;4970391;28;20026;-65
2022/12/22 11:20:32;;;;;;;;;;;11.10;99.90;;;;;;4969967;28;19926;-66
2022/12/22 11:23:02;;;;;;;;;;;11.10;99.90;;;;;;4970779;28;19938;-66
2022/12/22 11:25:36;;;;;;;;;;;11.20;99.90;;;;;;4970344;28;19932;-65
2022/12/22 11:28:14;;;;;;;;;;;11.10;99.90;;;;;;4970659;28;20029;-66
2022/12/22 11:30:48;;;;;;;;;;;11.10;99.90;;;;;;4969960;28;19973;-66
2022/12/22 11:33:21;;;;;;;;;;;11.20;99.90;;;;;;4970285;28;19926;-66
2022/12/22 11:35:56;;;;;;;;;;;11.10;99.90;;;;;;4957182;28;20017;-66
2022/12/22 11:38:36;;;;;;;;;;;11.20;99.90;;;;;;4950338;29;20446;-66
2022/12/22 11:41:07;;;;;;;;;;;11.10;99.90;;;;;;4950486;29;19981;-66
2022/12/22 11:43:42;;;;;;;;;;;11.20;99.90;;;;;;4950914;29;19941;-66
2022/12/22 11:46:15;;;;;;;;;;;11.20;99.90;;;;;;4950832;28;20029;-66
2022/12/22 11:49:02;;;;;;;;;;;11.20;99.90;;;;;;4951102;29;20410;-66
2022/12/22 11:51:37;;;;;;;;;;;11.20;99.90;;;;;;4966643;28;19930;-66
2022/12/22 11:54:26;;;;;;;;;;;11.20;99.90;;;;;;4970093;28;20037;-66
2022/12/22 11:56:59;;;;;;;;;;;11.20;99.90;;;;;;4972313;28;19976;-66
2022/12/22 11:59:36;;;;;;;;;;;11.20;99.90;;;;;;4970251;28;19933;-66
2022/12/22 12:02:19;;;;;;;;;;;11.20;99.90;;;;;;4970018;28;19932;-66
2022/12/22 12:05:07;;;;;;;;;;;11.10;99.90;;;;;;4969882;28;19927;-66
2022/12/22 12:07:38;;;;;;;;;;;11.10;99.90;;;;;;4961178;28;20045;-66
2022/12/22 12:10:13;;;;;;;;;;;11.20;99.90;;;;;;4969205;28;19932;-66
2022/12/22 12:12:45;;;;;;;;;;;11.20;99.90;;;;;;4969873;28;19949;-66
2022/12/22 12:15:23;;;;;;;;;;;11.20;99.90;;;;;;4970004;28;20355;-66
2022/12/22 12:17:58;;;;;;;;;;;11.10;99.90;;;;;;4969868;28;20360;-66
2022/12/22 12:20:36;;;;;;;;;;;11.10;99.90;;;;;;4969103;28;19926;-66
2022/12/22 12:23:09;;;;;;;;;;;11.10;99.90;;;;;;4968922;28;19926;-66
2022/12/22 12:25:39;;;;;;;;;;;11.10;99.90;;;;;;4969632;28;20399;-66
2022/12/22 12:28:13;;;;;;;;;;;11.10;99.90;;;;;;4969676;28;19926;-66
2022/12/22 12:30:46;;;;;;;;;;;11.10;99.90;;;;;;4969176;28;19926;-66
2022/12/22 12:33:17;;;;;;;;;;;11.20;99.90;;;;;;5017894;23;20007;-65
2022/12/22 12:35:51;;;;;;;;;;;11.20;99.90;;;;;;4972501;28;20310;-65
2022/12/22 12:38:24;;;;;;;;;;;11.20;99.90;;;;;;4962716;28;19926;-64
2022/12/22 12:41:17;;;;;;;;;;;11.10;99.90;;;;;;4930798;29;19927;-64
2022/12/22 12:43:46;;;;;;;;;;;11.10;99.90;;;;;;4912170;29;19931;-64
2022/12/22 12:46:32;;;;;;;;;;;11.20;99.90;;;;;;4912211;28;20018;-64
2022/12/22 12:49:01;;;;;;;;;;;11.10;99.90;;;;;;4912956;28;19927;-63
2022/12/22 12:51:45;;;;;;;;;;;11.10;99.90;;;;;;4914667;29;20030;-64
2022/12/22 12:54:37;;;;;;;;;;;11.10;99.90;;;;;;4920284;29;19974;-64
2022/12/22 12:57:29;;;;;;;;;;;11.20;99.90;;;;;;4948507;28;19973;-65
2022/12/22 12:59:57;;;;;;;;;;;11.10;99.90;;;;;;4933804;28;20368;-64
2022/12/22 13:02:35;;;;;;;;;;;11.10;99.90;;;;;;4934661;29;19927;-64
2022/12/22 13:05:11;;;;;;;;;;;11.20;99.90;;;;;;4969377;28;20274;-64
2022/12/22 13:07:58;;;;;;;;;;;11.20;99.90;;;;;;4987421;28;19925;-65
2022/12/22 13:10:26;;;;;;;;;;;11.10;99.90;;;;;;5032786;28;19959;-64
2022/12/22 13:12:54;;;;;;;;;;;11.10;99.90;;;;;;4932462;28;20313;-64
2022/12/22 13:15:29;;;;;;;;;;;11.10;99.90;;;;;;4933923;29;20021;-65
2022/12/22 13:17:57;;;;;;;;;;;11.10;99.90;;;;;;4934010;29;19926;-63
2022/12/22 13:20:27;;;;;;;;;;;11.10;99.90;;;;;;4933282;29;20021;-63
2022/12/22 13:22:56;;;;;;;;;;;11.10;99.90;;;;;;4933959;28;19935;-65
2022/12/22 13:25:25;;;;;;;;;;;11.10;99.90;;;;;;4933784;29;20021;-64
2022/12/22 13:27:54;;;;;;;;;;;11.10;99.90;;;;;;4933718;29;19962;-63
2022/12/22 13:30:22;;;;;;;;;;;11.10;99.90;;;;;;4932164;29;19931;-65
2022/12/22 13:32:50;;;;;;;;;;;11.20;99.90;;;;;;4933686;28;19966;-64
2022/12/22 13:35:20;;;;;;;;;;;11.20;99.90;;;;;;4960854;28;19925;-64
2022/12/22 13:38:25;;;;;;;;;;;11.30;99.90;;;;;;4991713;28;19934;-63
2022/12/22 13:40:53;;;;;;;;;;;11.10;99.90;;;;;;4927134;29;19934;-64
2022/12/22 13:43:21;;;;;;;;;;;11.10;99.90;;;;;;4933605;29;19934;-64
2022/12/22 13:45:49;;;;;;;;;;;11.20;99.90;;;;;;4933705;29;19927;-63
2022/12/22 13:48:19;;;;;;;;;;;11.10;99.90;;;;;;4933642;29;19927;-63
2022/12/22 13:50:48;;;;;;;;;;;11.10;99.90;;;;;;4932258;28;19931;-63
2022/12/22 13:53:19;;;;;;;;;;;11.20;99.90;;;;;;4933585;28;20422;-63
2022/12/22 13:56:08;;;;;;;;;;;11.10;99.90;;;;;;4933351;29;20388;-65
2022/12/22 13:58:36;;;;;;;;;;;11.10;99.90;;;;;;4933409;29;19927;-64
2022/12/22 14:01:13;;;;;;;;;;;11.00;99.90;;;;;;4931961;29;20365;-64
2022/12/22 14:03:45;;;;;;;;;;;10.80;99.90;;;;;;4933147;29;19935;-64
2022/12/22 14:06:30;;;;;;;;;;;10.70;99.90;;;;;;4974428;28;20032;-63
2022/12/22 14:09:13;;;;;;;;;;;10.60;99.90;;;;;;5006656;28;20361;-64
2022/12/22 14:11:41;;;;;;;;;;;10.60;99.90;;;;;;5032821;28;19948;-64
2022/12/22 14:14:19;;;;;;;;;;;10.60;99.90;;;;;;5033374;28;19929;-63
2022/12/22 14:16:48;;;;;;;;;;;10.60;99.90;;;;;;5033243;28;20010;-64
2022/12/22 14:19:16;;;;;;;;;;;10.60;99.90;;;;;;4999575;28;19931;-64
2022/12/22 14:21:45;;;;;;;;;;;10.60;99.90;;;;;;4932317;29;19972;-63
2022/12/22 14:24:19;;;;;;;;;;;10.60;99.90;;;;;;4933308;28;19927;-64
2022/12/22 14:26:47;;;;;;;;;;;10.60;99.90;;;;;;4933169;29;19927;-64
2022/12/22 14:29:17;;;;;;;;;;;10.50;99.90;;;;;;4933151;28;19981;-63
2022/12/22 14:31:51;;;;;;;;;;;10.50;99.90;;;;;;4931863;29;19933;-64
2022/12/22 14:34:24;;;;;;;;;;;10.50;99.90;;;;;;4932445;29;20320;-64
2022/12/22 14:36:51;;;;;;;;;;;10.40;99.90;;;;;;4974036;28;19927;-64
2022/12/22 14:39:23;;;;;;;;;;;10.40;99.90;;;;;;5021380;28;19925;-63
2022/12/22 14:41:52;;;;;;;;;;;10.30;99.90;;;;;;5032019;28;19931;-63
2022/12/22 14:44:22;;;;;;;;;;;10.30;99.90;;;;;;5032807;28;19925;-63
2022/12/22 14:47:02;;;;;;;;;;;10.30;99.90;;;;;;5032798;28;20012;-64
2022/12/22 14:49:30;;;;;;;;;;;10.20;99.90;;;;;;4987570;28;19930;-63
2022/12/22 14:52:03;;;;;;;;;;;10.20;99.90;;;;;;4931862;29;19926;-64
2022/12/22 14:54:32;;;;;;;;;;;10.20;99.90;;;;;;4932509;29;19927;-63
2022/12/22 14:57:02;;;;;;;;;;;10.20;99.90;;;;;;4932621;29;20315;-63
2022/12/22 14:59:30;;;;;;;;;;;10.20;99.90;;;;;;4932115;29;19957;-64
2022/12/22 15:01:59;;;;;;;;;;;10.20;99.90;;;;;;4931942;28;20386;-64
2022/12/22 15:04:27;;;;;;;;;;;10.20;99.90;;;;;;4932421;29;20396;-63
2022/12/22 15:07:04;;;;;;;;;;;10.10;99.90;;;;;;4973820;28;19931;-64
2022/12/22 15:09:33;;;;;;;;;;;10.10;99.90;;;;;;5028176;28;20428;-63
2022/12/22 15:12:20;;;;;;;;;;;10.20;99.90;;;;;;5032002;28;19929;-63
2022/12/22 15:14:48;;;;;;;;;;;10.10;99.90;;;;;;4973061;28;20386;-64
2022/12/22 15:17:20;;;;;;;;;;;10.10;99.90;;;;;;4932531;28;19980;-63
2022/12/22 15:19:48;;;;;;;;;;;10.00;99.90;;;;;;4931665;29;19934;-64
2022/12/22 15:22:16;;;;;;;;;;;10.00;99.90;;;;;;4932022;28;19976;-64
2022/12/22 15:24:46;;;;;;;;;;;9.90;99.90;;;;;;4932240;29;19973;-64
2022/12/22 15:27:14;;;;;;;;;;;9.90;99.90;;;;;;4932232;29;20351;-63
2022/12/22 15:29:42;;;;;;;;;;;9.90;99.90;;;;;;4931652;28;20042;-63
2022/12/22 15:32:10;;;;;;;;;;;9.80;99.90;;;;;;4931950;29;19927;-64
2022/12/22 15:34:38;;;;;;;;;;;9.80;99.90;;;;;;4931651;28;20406;-63
2022/12/22 15:37:06;;;;;;;;;;;9.90;99.90;;;;;;4973186;28;19926;-64
2022/12/22 15:39:33;;;;;;;;;;;9.80;99.90;;;;;;5029261;28;19929;-63
2022/12/22 15:42:03;;;;;;;;;;;9.90;99.90;;;;;;5031803;28;19925;-64
2022/12/22 15:44:32;;;;;;;;;;;9.80;99.90;;;;;;5031268;28;21304;-64
2022/12/22 15:47:05;;;;;;;;;;;9.80;99.90;;;;;;5032197;28;20024;-63
2022/12/22 15:49:33;;;;;;;;;;;9.80;99.90;;;;;;4971166;28;19933;-63
2022/12/22 15:52:02;;;;;;;;;;;9.70;99.90;;;;;;4931294;28;20013;-64
2022/12/22 15:54:31;;;;;;;;;;;9.70;99.90;;;;;;4931939;29;19931;-63
2022/12/22 15:56:59;;;;;;;;;;;9.70;99.90;;;;;;4931895;29;20321;-63
2022/12/22 15:59:28;;;;;;;;;;;9.70;99.90;;;;;;4931608;29;19931;-64
2022/12/22 16:01:57;;;;;;;;;;;9.60;99.90;;;;;;4931318;28;20053;-65
2022/12/22 16:04:28;;;;;;;;;;;9.60;99.90;;;;;;4931194;29;20018;-64
2022/12/22 16:06:58;;;;;;;;;;;9.60;99.90;;;;;;4972828;28;20386;-64
2022/12/22 16:09:27;;;;;;;;;;;9.60;99.90;;;;;;5023804;28;19926;-63
2022/12/22 16:11:55;;;;;;;;;;;9.60;99.90;;;;;;5031064;28;20314;-64
2022/12/22 16:14:23;;;;;;;;;;;9.60;99.90;;;;;;5031528;28;19925;-64
2022/12/22 16:16:52;;;;;;;;;;;9.60;99.90;;;;;;5031406;28;19925;-63
2022/12/22 16:19:19;;;;;;;;;;;9.70;99.90;;;;;;5031688;28;20012;-63
2022/12/22 16:21:48;;;;;;;;;;;9.70;99.90;;;;;;5030653;28;19929;-64
2022/12/22 16:24:21;;;;;;;;;;;9.70;99.90;;;;;;4996237;28;20010;-63
2022/12/22 16:26:49;;;;;;;;;;;9.70;99.90;;;;;;4934929;29;19933;-63
2022/12/22 16:29:17;;;;;;;;;;;9.80;99.90;;;;;;4934781;28;20285;-64
2022/12/22 16:31:44;;;;;;;;;;;9.80;99.90;;;;;;4933894;28;19927;-63
2022/12/22 16:34:13;;;;;;;;;;;9.80;99.90;;;;;;4934685;28;19981;-64
2022/12/22 16:36:41;;;;;;;;;;;9.80;99.90;;;;;;4968650;28;19943;-64
2022/12/22 16:39:09;;;;;;;;;;;9.80;99.90;;;;;;4997128;28;20018;-64
2022/12/22 16:41:37;;;;;;;;;;;9.70;99.90;;;;;;4933916;28;19927;-63
2022/12/22 16:44:06;;;;;;;;;;;9.80;99.90;;;;;;4934416;29;19927;-64
2022/12/22 16:46:36;;;;;;;;;;;9.60;99.90;;;;;;4934481;29;20558;-64
2022/12/22 16:49:06;;;;;;;;;;;9.60;99.90;;;;;;4934435;29;19962;-64
2022/12/22 16:51:37;;;;;;;;;;;9.60;99.90;;;;;;4933621;29;19927;-64
2022/12/22 16:54:05;;;;;;;;;;;9.50;99.90;;;;;;4934123;29;20446;-64
2022/12/22 16:56:33;;;;;;;;;;;9.50;99.90;;;;;;4934182;29;20454;-64
2022/12/22 16:59:03;;;;;;;;;;;9.50;99.90;;;;;;4934364;29;19934;-63
2022/12/22 17:01:33;;;;;;;;;;;9.60;99.90;;;;;;4933712;28;19931;-65
2022/12/22 17:04:03;;;;;;;;;;;9.60;99.90;;;;;;4934320;29;20347;-64
2022/12/22 17:06:31;;;;;;;;;;;9.60;99.90;;;;;;4975465;28;20358;-63
2022/12/22 17:09:01;;;;;;;;;;;9.60;99.90;;;;;;4996379;28;19929;-63
2022/12/22 17:11:31;;;;;;;;;;;9.60;99.90;;;;;;4933363;29;19953;-64
2022/12/22 17:14:02;;;;;;;;;;;9.60;99.90;;;;;;4933891;28;19930;-64
2022/12/22 17:16:30;;;;;;;;;;;9.70;99.90;;;;;;4933929;29;19933;-64
2022/12/22 17:18:58;;;;;;;;;;;9.70;99.90;;;;;;4933466;29;19927;-63
2022/12/22 17:21:27;;;;;;;;;;;9.60;99.90;;;;;;4932311;29;19981;-64
2022/12/22 17:24:02;;;;;;;;;;;9.60;99.90;;;;;;4933753;29;19937;-63
2022/12/22 17:26:32;;;;;;;;;;;9.60;99.90;;;;;;4934006;29;19927;-64
2022/12/22 17:29:00;;;;;;;;;;;9.60;99.90;;;;;;4934003;29;19981;-63
2022/12/22 17:31:28;;;;;;;;;;;9.60;99.90;;;;;;4932938;29;19926;-64
2022/12/22 17:33:56;;;;;;;;;;;9.60;99.90;;;;;;4933673;29;19926;-63
2022/12/22 17:36:28;;;;;;;;;;;9.60;99.90;;;;;;4973561;28;19976;-63
2022/12/22 17:38:56;;;;;;;;;;;9.60;99.90;;;;;;5005766;28;20020;-63
2022/12/22 17:41:23;;;;;;;;;;;9.60;99.90;;;;;;5033459;28;19925;-63
2022/12/22 17:43:52;;;;;;;;;;;9.60;99.90;;;;;;5034077;28;20275;-64
2022/12/22 17:46:21;;;;;;;;;;;9.60;99.90;;;;;;5033971;28;20295;-64
2022/12/22 17:48:49;;;;;;;;;;;9.70;99.90;;;;;;5033898;28;19925;-63
2022/12/22 17:51:17;;;;;;;;;;;9.70;99.90;;;;;;5033268;28;19925;-65
2022/12/22 17:53:46;;;;;;;;;;;9.70;99.90;;;;;;5033669;28;19965;-63
2022/12/22 17:56:15;;;;;;;;;;;9.80;99.90;;;;;;5033789;28;19925;-64
2022/12/22 17:58:43;;;;;;;;;;;9.80;99.90;;;;;;4945409;28;20344;-65
2022/12/22 18:01:19;;;;;;;;;;;9.80;99.90;;;;;;4932846;28;19931;-64
2022/12/22 18:03:47;;;;;;;;;;;9.80;99.90;;;;;;4933378;29;19982;-62
2022/12/22 18:06:15;;;;;;;;;;;9.90;99.90;;;;;;4932468;28;19927;-64
2022/12/22 18:08:45;;;;;;;;;;;9.90;99.90;;;;;;4933577;28;20347;-63
2022/12/22 18:11:13;;;;;;;;;;;10.00;99.90;;;;;;4941833;28;19933;-64
2022/12/22 18:13:41;;;;;;;;;;;9.90;99.90;;;;;;4932661;28;19938;-64
2022/12/22 18:16:12;;;;;;;;;;;9.90;99.90;;;;;;4932983;29;19927;-63
2022/12/22 18:18:41;;;;;;;;;;;9.90;99.90;;;;;;4933306;28;19927;-63
2022/12/22 18:21:13;;;;;;;;;;;9.90;99.90;;;;;;4932439;29;20030;-63
2022/12/22 18:23:41;;;;;;;;;;;9.90;99.90;;;;;;4932981;29;19934;-64
2022/12/22 18:26:19;;;;;;;;;;;9.90;99.90;;;;;;4932718;28;19934;-65
2022/12/22 18:28:47;;;;;;;;;;;9.90;99.90;;;;;;4932666;29;20021;-65